Fedor Khrenov

Recruteur - Lokomotiv Moscow
15 Oct 2028
Dimanche
Processus

Personnalité

Adaptabilité (17) Ambition (4) Controverse (2) Loyauté (19) Pression (19) Professionnalisme (13) Sportivité (1) Tempérament (9)

Profil

Style d'entraînement Démocratique
Diplôme Continental C
Détermination 9
Gestion des joueurs 9
Motivation 5
Discipline 6
Satisfaction professionnelle
100%
Fatigue
0%
Rôle Recruteur
Salaire 86.2K p/s
Contrat 14.03.2029

Performance

Comportement Bon
Efficacité de l'entraînement
50%
Développement des joueurs
60%
Prévention des blessures
50%
Mise en place tactique
30%

Événements récents

A recommandé une cible de transfert maintenant
A recommandé une cible de transfert maintenant
A recommandé une cible de transfert maintenant
A recommandé une cible de transfert maintenant
A évalué un joueur maintenant
A évalué un joueur maintenant
A évalué un joueur maintenant
A observé un match maintenant

Suivi en cours

138
Joueur Club Statut Capacité Confiance Observé Dernière observation Dernier vote
Abduvohid Ne'matov Nasaf Actif 126 / 141 40% 6 14.10.2028 -
Kostantis Tzolakis Brighton Actif 161 / 159 40% 1 14.10.2028 -
Dean Henderson Crystal Palace Actif 148 / 154 40% 18 13.10.2028 -
Lukáš Horníček Burnley Actif 146 / 145 40% 13 13.10.2028 -
Mads Hermansen West Ham United Actif 149 / 143 40% 11 13.10.2028 -
Christos Mandas Lazio Actif 157 / 150 40% 17 12.10.2028 -
Unai Marrero Real Sociedad Actif 150 / 138 40% 4 12.10.2028 -
Vladislav Torop CSKA Moscow Actif 147 / 137 40% 3 12.10.2028 -
James Trafford Leeds United Actif 147 / 150 40% 19 11.10.2028 -
Radek Vítek Middlesbrough Actif 149 / 153 40% 10 11.10.2028 -
Josh Keeley Luton Town Actif 150 / 134 40% 7 11.10.2028 -
Denis Adamov Zenit Actif 125 / 127 40% 12 09.10.2028 -
Robert Sánchez Newcastle United Actif 170 / 163 40% 2 09.10.2028 -
Leandro Brey Boca Juniors Actif 133 / 138 40% 5 08.10.2028 -
Guille Rosas Boca Juniors Actif 156 / 134 40% 3 08.10.2028 -
Sven Botman Newcastle United Actif 169 / 174 40% 1 08.10.2028 -
Ryan Sessegnon Fulham Actif 159 / 164 40% 1 08.10.2028 -
Sol Brynn Bradford City Actif 136 / 133 40% 9 06.10.2028 -
Gastón Martirena Racing Club Actif 141 / 127 40% 2 06.10.2028 -
Santiago González Tigre Actif 129 / 138 40% 2 06.10.2028 -
Levi Colwill Chelsea Actif 160 / 164 40% 1 06.10.2028 -
Murphy Cooper Plymouth Argyle Actif 131 / 139 40% 6 05.10.2028 -
Joaquín Blázquez Talleres Actif 129 / 124 40% 3 05.10.2028 -
Samuel Brolin Kalmar FF Actif 133 / 129 40% 4 05.10.2028 -
Ismaël Bennacer Boca Juniors Actif 149 / 142 40% 3 04.10.2028 -
Nino Dinamo Moscow Actif 149 / 143 40% 1 04.10.2028 -
Riku Yamane Yokohama F. Marinos Actif 133 / 152 40% 1 04.10.2028 -
Anthony Patterson Wrexham Actif 151 / 142 40% 14 01.10.2028 -
Carl Rushworth Aston Villa Actif 167 / 157 40% 17 01.10.2028 -
Vladan Kovačević Norwich City Actif 127 / 142 40% 14 01.10.2028 -
Evgeny Latyshonok Nizhniy Novgorod Actif 125 / 134 40% 14 30.09.2028 -
Wendel Zenit Actif 152 / 149 40% 8 28.09.2028 -
Juanlu Bournemouth Actif 158 / 168 40% 3 28.09.2028 -
Aaron Ramsdale Southampton Actif 151 / 161 40% 19 26.09.2028 -
Emil Audero Como Actif 132 / 140 40% 1 26.09.2028 -
Temirlan Anarbekov Kairat Actif 121 / 130 40% 4 24.09.2028 -
Daniel Peretz Wolverhampton Actif 152 / 159 40% 3 24.09.2028 -
James Beadle Hull City Actif 150 / 144 40% 1 24.09.2028 -
Luis Ingolotti Atlético Tucumán Actif 118 / 127 40% 3 22.09.2028 -
Stanislav Agkatsev Brentford Refusé 140 / 146 66% 2 21.09.2028 Refuser
Gianluigi Donnarumma AS Roma Actif 173 / 165 40% 6 21.09.2028 -
Viktor Johansson Bournemouth Actif 143 / 140 40% 2 20.09.2028 -
Robin Roefs Sunderland Actif 142 / 151 40% 12 19.09.2028 -
Jonmi Magunagoitia Eibar Actif 148 / 142 40% 1 18.09.2028 -
Douglas Augusto Krasnodar Actif 137 / 131 40% 6 15.09.2028 -
Lewis Hall Newcastle United Actif 156 / 170 40% 1 15.09.2028 -
Mark Travers Leicester City Actif 157 / 144 40% 3 13.09.2028 -
Tomás Durso Sarmiento Actif 117 / 120 40% 1 13.09.2028 -
Giorgi Mamardashvili Liverpool Actif 161 / 162 40% 3 11.09.2028 -
Antonín Kinský Tottenham Actif 155 / 154 40% 3 11.09.2028 -
Bart Verbruggen Liverpool Actif 169 / 176 40% 2 10.09.2028 -
Alexandr Chernikov Krasnodar Actif 135 / 143 40% 3 09.09.2028 -
Caoimhin Kelleher Brentford Actif 169 / 156 40% 16 01.09.2028 -
Ander Astralaga Newcastle United Actif 138 / 156 40% 1 01.09.2028 -
Facundo Sanguinetti Banfield Actif 130 / 122 40% 4 30.08.2028 -
Oliver Dovin Coventry City Actif 144 / 138 40% 11 29.08.2028 -
Zion Suzuki Aston Villa Actif 152 / 163 40% 1 28.08.2028 -
Jakub Stolarczyk Middlesbrough Actif 144 / 157 40% 2 27.08.2028 -
Ivan Oblyakov CSKA Moscow Actif 142 / 134 40% 5 26.08.2028 -
Juan Carlos Portillo River Plate Actif 130 / 123 40% 1 26.08.2028 -
Balázs Tóth Blackburn Rovers Actif 142 / 149 40% 11 24.08.2028 -
Damián Fernández Defensa y Justicia Actif 124 / 120 40% 2 24.08.2028 -
Lautaro Di Lollo Boca Juniors Actif 141 / 129 40% 1 24.08.2028 -
Gonzalo Montiel River Plate Actif 122 / 143 40% 1 24.08.2028 -
Felipe Peña Biafore Lanús Actif 130 / 118 40% 1 21.08.2028 -
Adam Gnezda Čerin Al Wahda Actif 144 / 147 40% 1 21.08.2028 -
Illan Meslier Crystal Palace Actif 154 / 150 40% 1 21.08.2028 -
Alex Meret Napoli Actif 167 / 160 40% 16 20.08.2028 -
Elia Caprile Cagliari Actif 149 / 158 40% 7 20.08.2028 -
Ludovico Del Sorbo Sorrento Actif 128 / 115 40% 2 20.08.2028 -
Alessandro Plizzari Juve Stabia Actif 132 / 130 40% 1 18.08.2028 -
Alen Sherri Frosinone Actif 130 / 131 40% 1 18.08.2028 -
Mile Svilar AS Roma Actif 162 / 167 40% 17 17.08.2028 -
Michele Cerofolini Empoli Actif 128 / 140 40% 13 17.08.2028 -
Gianluca Saro Foggia Actif 119 / 114 40% 2 16.08.2028 -
Oufa Shobeir MC Alger Actif 140 / 143 40% 2 16.08.2028 -
Amir Saipi Mallorca Actif 136 / 129 40% 8 15.08.2028 -
Lautaro Morales Lanús Actif 128 / 135 40% 1 14.08.2028 -
Franck Fomeyem Córdoba Actif 123 / 120 40% 1 14.08.2028 -
Adrián Bernabé Parma Actif 143 / 158 40% 1 14.08.2028 -
Matteo Prati Cagliari Actif 148 / 149 40% 1 14.08.2028 -
Carlos Marín Albacete Actif 136 / 144 40% 4 12.08.2028 -
Adrià Altimira Deportivo La Coruña Actif 148 / 136 40% 1 12.08.2028 -
Tommaso Barbieri Cremonese Actif 141 / 131 40% 1 10.08.2028 -
Marco Curto Empoli Actif 125 / 129 40% 1 10.08.2028 -
Darko Todorović Fakel Actif 115 / 116 72% 1 07.08.2028 Approuver
Matteo Ruggeri Middlesbrough Actif 169 / 167 40% 2 06.08.2028 -
Mats Wieffer Brighton Actif 158 / 163 40% 1 06.08.2028 -
Neco Williams Wrexham Actif 161 / 147 40% 1 06.08.2028 -
Nathan Trott Cardiff City Actif 125 / 143 40% 8 04.08.2028 -
Joe Whitworth Wigan Athletic Actif 132 / 122 40% 2 02.08.2028 -
Fran Vieites Walsall Actif 140 / 136 40% 14 01.08.2028 -
Filip Marschall Stevenage Actif 129 / 119 40% 4 30.07.2028 -
Will Mannion Charlton Athletic Actif 122 / 131 40% 1 28.07.2028 -
Samuele Perisan Reggiana Actif 116 / 114 40% 1 28.07.2028 -
Vitaly Janelt Derby County Actif 157 / 157 40% 2 27.07.2028 -
Archie Gray Southampton Actif 152 / 147 40% 1 27.07.2028 -
Yasin Ayari Middlesbrough Actif 147 / 142 40% 1 20.07.2028 -
Bafodé Diakité Plymouth Argyle Actif 141 / 156 40% 2 19.07.2028 -
Max Bird Birmingham Actif 136 / 147 40% 1 19.07.2028 -
Welington Southampton Actif 148 / 130 40% 1 18.07.2028 -
Manu Koné AS Roma Actif 180 / 166 40% 1 18.07.2028 -
Vanja Milinković-Savić Atalanta Actif 159 / 160 40% 14 14.07.2028 -
Yury Zhuravlev Fakel Actif 105 / 105 72% 1 10.07.2028 Approuver
Timur Suleimanov Nizhniy Novgorod Actif 125 / 121 72% 1 03.07.2028 Approuver
Alexei Rojas Fedorushchenko Barrow AFC Actif 116 / 117 40% 4 26.06.2028 -
Gaëtan Coucke Sampdoria Actif 118 / 137 40% 5 15.06.2028 -
Miro Arsenal Tula Actif 123 / 123 72% 1 15.06.2028 Approuver
Largie Ramazani Leeds United Actif 149 / 136 40% 1 13.06.2028 -
Zito Luvumbo Cagliari Actif 140 / 122 40% 1 13.06.2028 -
Maxim Borisko CSKA Moscow Actif 124 / 130 40% 12 26.04.2028 -
Lukas Jensen Millwall Actif 116 / 136 40% 4 13.04.2028 -
Adrian Šemper Al-Fateh Actif 129 / 148 40% 5 28.02.2028 -
Riccardo Gagno Vicenza Actif 135 / 116 40% 2 23.02.2028 -
Jonathan Klinsmann Cesena Actif 129 / 128 40% 2 15.02.2028 -
Maílson Al-Taawoun Actif 127 / 143 40% 3 14.02.2028 -
Semuel Pizzignacco Monza Actif 140 / 127 40% 2 07.02.2028 -
Nicolás Fernández Mercau Club America Actif 134 / 134 67% 1 25.01.2028 Approuver
Bitello Universidad de Chile Actif 135 / 135 68% 1 25.01.2028 Approuver
Nikolay Titkov Baltika Actif 120 / 124 69% 1 12.07.2027 Approuver
Jota Silva Olympiacos Actif 131 / 138 40% 1 13.06.2027 -
Gustavo Mantuan Zenit Actif 143 / 129 40% 8 23.01.2027 -
Ferland Mendy Real Madrid Actif 141 / 129 40% 8 23.01.2027 -
Lucas Olaza CSKA Moscow Actif 135 / 124 40% 6 22.01.2027 -
Théo Hernández CSKA Moscow Actif 159 / 153 40% 4 20.01.2027 -
João Victor CSKA Moscow Actif 127 / 122 40% 4 20.01.2027 -
Tormena Krasnodar Actif 137 / 124 40% 4 05.01.2027 -
Kevin Pina Krasnodar Actif 127 / 135 40% 2 01.01.2027 -
Diego Gómez Brighton Actif 143 / 136 40% 1 26.12.2026 -
Valentín Gómez Betis Actif 150 / 154 40% 2 08.12.2026 -
Rubens Dinamo Moscow Actif 121 / 125 40% 3 07.12.2026 -
Luis Chávez Dinamo Moscow Actif 129 / 134 40% 4 02.12.2026 -
Danil Glebov Dinamo Moscow Actif 132 / 120 40% 5 18.11.2026 -
Manu Morlanes Mallorca Actif 139 / 151 40% 1 10.11.2026 -
Metinho Basel Actif 131 / 127 40% 1 01.11.2026 -
Yves Bissouma Tottenham Actif 142 / 131 40% 4 28.10.2026 -
Edu Expósito Espanyol Actif 150 / 126 40% 2 21.10.2026 -
Carl Starfelt Celta Actif 138 / 135 40% 1 02.08.2026 -